Time;durP1;ratioP1;P1;durP2;ratioP2;P2;SDS_P1;SDS_P2;PMS_P1;PMS_P2;Temp;Humidity;BMP_temperature;BMP_pressure;BME280_temperature;BME280_humidity;BME280_pressure;Samples;Min_cycle;Max_cycle;Signal;HPM_P1;HPM_P2
2022/06/27 00:01:16;;;;;;;1.17;0.70;;;29.60;63.30;;;;;;10891266;32;20028;-74
2022/06/27 00:07:18;;;;;;;3.17;1.20;;;29.60;63.50;;;;;;10903698;32;20415;-74
2022/06/27 00:13:20;;;;;;;3.50;1.02;;;29.60;63.50;;;;;;10903390;32;20046;-74
2022/06/27 00:19:53;;;;;;;4.35;1.20;;;29.60;63.90;;;;;;10829801;32;20066;-74
2022/06/27 00:25:55;;;;;;;1.42;0.93;;;29.60;64.30;;;;;;10829230;32;20054;-75
2022/06/27 00:31:57;;;;;;;2.85;1.10;;;29.60;64.50;;;;;;10828587;32;20424;-75
2022/06/27 00:37:59;;;;;;;2.87;1.10;;;29.50;64.80;;;;;;10824471;33;20059;-75
2022/06/27 00:44:01;;;;;;;2.30;1.00;;;29.50;64.50;;;;;;10889281;32;20051;-75
2022/06/27 00:50:06;;;;;;;1.45;0.90;;;29.50;64.70;;;;;;10902007;32;20379;-75
2022/06/27 00:56:08;;;;;;;2.75;0.88;;;29.40;64.80;;;;;;10901630;32;20031;-75
2022/06/27 01:02:11;;;;;;;1.48;1.20;;;29.30;64.70;;;;;;10901472;32;20019;-74
2022/06/27 01:08:14;;;;;;;1.40;0.93;;;29.30;64.90;;;;;;10901330;32;20053;-74
2022/06/27 01:14:17;;;;;;;2.70;1.08;;;29.30;65.50;;;;;;10901332;32;20020;-74
2022/06/27 01:20:20;;;;;;;2.78;1.37;;;29.20;65.50;;;;;;10902010;32;20062;-74
2022/06/27 01:26:25;;;;;;;2.40;1.23;;;29.10;65.60;;;;;;10901044;32;20023;-74
2022/06/27 01:32:28;;;;;;;3.15;1.37;;;29.20;65.60;;;;;;10900743;32;20034;-74
2022/06/27 01:38:30;;;;;;;2.83;1.45;;;29.10;65.60;;;;;;10900623;32;20313;-74
2022/06/27 01:44:33;;;;;;;1.55;1.00;;;29.10;65.70;;;;;;10901391;32;20039;-74
2022/06/27 01:50:38;;;;;;;0.98;0.70;;;29.00;66.10;;;;;;10900259;32;20359;-74
2022/06/27 01:56:41;;;;;;;1.37;1.27;;;28.90;66.30;;;;;;10896022;32;20496;-74
2022/06/27 02:02:45;;;;;;;3.60;1.45;;;28.90;66.50;;;;;;10900186;32;20396;-74
2022/06/27 02:08:50;;;;;;;1.98;1.45;;;28.80;66.50;;;;;;10953836;32;20057;-74
2022/06/27 02:14:53;;;;;;;1.48;1.25;;;28.80;66.60;;;;;;10985245;32;20049;-74
2022/06/27 02:20:57;;;;;;;6.00;1.85;;;28.70;67.00;;;;;;10986922;32;20030;-73
2022/06/27 02:27:00;;;;;;;1.85;1.20;;;28.60;67.00;;;;;;10986914;32;20395;-74
2022/06/27 02:33:04;;;;;;;1.87;1.35;;;28.60;67.00;;;;;;10986386;32;20057;-76
2022/06/27 02:39:07;;;;;;;3.08;1.90;;;28.60;67.10;;;;;;10986127;32;20099;-76
2022/06/27 02:45:10;;;;;;;4.15;1.52;;;28.60;67.00;;;;;;10986287;32;20042;-73
2022/06/27 02:51:16;;;;;;;2.28;1.62;;;28.50;67.20;;;;;;10985484;32;20026;-68
2022/06/27 02:57:33;;;;;;;4.43;2.08;;;28.50;67.10;;;;;;10981297;32;20053;-69
2022/06/27 03:03:41;;;;;;;2.92;1.95;;;28.40;67.20;;;;;;10968143;32;20330;-70
2022/06/27 03:09:43;;;;;;;4.87;2.03;;;28.40;67.20;;;;;;10981781;32;20387;-70
2022/06/27 03:15:46;;;;;;;7.10;2.30;;;28.30;67.20;;;;;;10969650;32;20358;-70
2022/06/27 03:21:48;;;;;;;4.95;2.75;;;28.30;67.60;;;;;;10980510;32;20076;-70
2022/06/27 03:27:50;;;;;;;3.80;2.58;;;28.20;67.70;;;;;;10980994;32;20084;-69
2022/06/27 03:33:54;;;;;;;4.20;3.37;;;28.10;67.70;;;;;;10980228;32;20052;-70
2022/06/27 03:39:57;;;;;;;5.68;2.87;;;28.10;67.50;;;;;;10981506;32;20065;-70
2022/06/27 03:45:59;;;;;;;3.65;2.33;;;28.10;67.30;;;;;;10979652;32;20089;-69
2022/06/27 03:52:02;;;;;;;5.85;2.78;;;28.00;67.30;;;;;;10979446;32;20049;-70
2022/06/27 03:58:06;;;;;;;4.75;3.33;;;27.80;67.50;;;;;;10965715;32;20060;-70
2022/06/27 04:04:10;;;;;;;3.40;2.28;;;27.90;67.40;;;;;;10979409;32;20215;-68
2022/06/27 04:10:13;;;;;;;3.58;2.25;;;28.00;67.10;;;;;;10965254;32;20023;-68
2022/06/27 04:16:16;;;;;;;5.70;3.15;;;28.00;67.10;;;;;;10978503;32;20023;-70
2022/06/27 04:22:19;;;;;;;4.10;3.05;;;28.10;67.00;;;;;;10978968;32;20060;-68
2022/06/27 04:28:22;;;;;;;3.28;2.20;;;28.10;67.10;;;;;;10981871;27;20043;-70
2022/06/27 04:34:24;;;;;;;3.67;1.55;;;28.10;67.30;;;;;;10979839;32;20023;-70
2022/06/27 04:40:27;;;;;;;6.25;2.03;;;28.10;67.00;;;;;;10978408;32;20056;-70
2022/06/27 04:46:29;;;;;;;2.75;2.00;;;28.00;67.10;;;;;;10977329;32;20062;-70
2022/06/27 04:52:33;;;;;;;6.40;2.60;;;27.90;67.20;;;;;;10963954;32;20391;-70
2022/06/27 04:58:36;;;;;;;2.65;1.77;;;27.90;67.30;;;;;;10965612;32;20421;-70
2022/06/27 05:04:38;;;;;;;5.62;2.50;;;28.00;67.20;;;;;;10976807;32;20064;-70
2022/06/27 05:10:47;;;;;;;4.47;2.53;;;28.00;67.30;;;;;;10963345;32;20022;-70
2022/06/27 05:16:50;;;;;;;;;;;28.10;67.50;;;;;;10976615;32;20092;-68
2022/06/27 05:22:53;;;;;;;6.22;2.58;;;28.10;67.50;;;;;;10980523;32;19926;-70
2022/06/27 05:28:55;;;;;;;3.65;2.55;;;28.00;67.60;;;;;;10976875;32;20096;-70
2022/06/27 05:34:59;;;;;;;5.40;2.40;;;28.20;67.20;;;;;;10978242;32;20049;-70
2022/06/27 05:41:02;;;;;;;4.25;2.75;;;28.30;66.90;;;;;;10977272;32;20031;-70
2022/06/27 05:47:04;;;;;;;3.35;1.90;;;28.40;66.70;;;;;;10976037;32;20057;-70
2022/06/27 05:53:08;;;;;;;3.33;2.22;;;28.60;66.40;;;;;;10977788;32;20019;-70
2022/06/27 05:59:11;;;;;;;3.72;2.53;;;28.70;66.00;;;;;;10975263;32;20034;-68
2022/06/27 06:05:28;;;;;;;4.40;1.87;;;28.80;65.70;;;;;;10975343;32;20022;-68
2022/06/27 06:11:31;;;;;;;2.87;1.87;;;29.00;65.30;;;;;;10978849;32;20066;-68
2022/06/27 06:17:34;;;;;;;4.07;2.33;;;29.20;65.00;;;;;;10965612;32;20022;-69
2022/06/27 06:23:38;;;;;;;2.37;1.48;;;29.30;64.70;;;;;;10973857;32;20060;-69
2022/06/27 06:29:41;;;;;;;3.47;1.70;;;29.40;64.40;;;;;;10943355;32;20070;-69
2022/06/27 06:35:45;;;;;;;2.75;1.65;;;29.60;64.10;;;;;;10939735;32;20031;-69
2022/06/27 06:41:48;;;;;;;5.90;1.87;;;29.60;63.90;;;;;;10941994;32;20018;-69
2022/06/27 06:47:52;;;;;;;3.80;1.95;;;29.70;63.60;;;;;;10953382;32;20446;-68
2022/06/27 06:53:55;;;;;;;1.65;1.00;;;29.80;63.30;;;;;;10953298;32;20331;-69
2022/06/27 06:59:57;;;;;;;1.80;1.20;;;29.80;63.00;;;;;;10948331;32;20035;-69
2022/06/27 07:06:02;;;;;;;3.87;1.58;;;30.00;62.50;;;;;;10983207;32;20053;-68
2022/06/27 07:12:04;;;;;;;2.67;1.83;;;30.10;61.90;;;;;;10978948;32;20057;-69
2022/06/27 07:18:07;;;;;;;3.15;1.52;;;30.20;61.70;;;;;;10949614;32;20027;-69
2022/06/27 07:24:09;;;;;;;4.72;1.10;;;30.40;61.20;;;;;;10944067;32;20049;-69
2022/06/27 07:30:13;;;;;;;2.25;1.40;;;30.60;60.70;;;;;;10946806;32;20030;-69
2022/06/27 07:36:15;;;;;;;5.82;1.85;;;30.60;59.90;;;;;;10942180;32;20035;-70
2022/06/27 07:42:17;;;;;;;3.10;0.90;;;30.80;59.60;;;;;;10942266;32;20023;-69
2022/06/27 07:48:21;;;;;;;1.00;0.65;;;30.90;59.00;;;;;;10946174;32;20057;-69
2022/06/27 07:54:24;;;;;;;4.70;1.37;;;31.00;58.70;;;;;;10942568;32;20019;-69
2022/06/27 08:00:26;;;;;;;5.93;1.87;;;31.10;57.60;;;;;;10945782;32;20077;-69
2022/06/27 08:06:29;;;;;;;4.10;1.48;;;31.10;56.90;;;;;;10945541;32;20042;-70
2022/06/27 08:12:33;;;;;;;1.60;1.00;;;31.30;56.20;;;;;;10944677;32;20023;-69
2022/06/27 08:18:38;;;;;;;2.95;1.67;;;31.40;55.60;;;;;;10944440;32;20030;-69
2022/06/27 08:24:40;;;;;;;2.53;1.33;;;31.60;55.30;;;;;;10945079;32;20402;-67
2022/06/27 08:30:46;;;;;;;4.37;1.50;;;31.70;55.30;;;;;;10944847;32;20296;-69
2022/06/27 08:36:48;;;;;;;1.87;1.10;;;31.80;54.20;;;;;;10944567;32;20327;-69
2022/06/27 08:42:51;;;;;;;2.70;1.40;;;31.90;54.30;;;;;;10944213;32;20017;-68
2022/06/27 08:48:53;;;;;;;2.00;1.12;;;32.10;53.70;;;;;;10943881;32;20022;-69
2022/06/27 08:54:59;;;;;;;5.70;1.30;;;32.20;52.10;;;;;;10943850;32;20049;-69
2022/06/27 09:01:02;;;;;;;2.15;1.25;;;32.30;51.30;;;;;;10930138;32;20071;-69
2022/06/27 09:07:53;;;;;;;2.30;1.27;;;32.40;50.70;;;;;;10943382;32;20052;-69
2022/06/27 09:14:05;;;;;;;4.75;1.00;;;32.70;50.10;;;;;;10943192;32;20039;-70
2022/06/27 09:20:09;;;;;;;3.12;1.27;;;32.80;48.70;;;;;;10941755;32;20030;-69
2022/06/27 09:26:14;;;;;;;4.43;1.08;;;33.00;47.90;;;;;;10938757;32;20055;-70
2022/06/27 09:32:56;;;;;;;2.53;0.93;;;33.10;46.80;;;;;;10942523;32;20019;-68
2022/06/27 09:39:21;;;;;;;8.93;1.70;;;33.20;46.10;;;;;;10827409;32;20035;-67
2022/06/27 09:45:25;;;;;;;3.40;1.45;;;33.40;45.30;;;;;;10826502;32;20031;-68
2022/06/27 09:51:37;;;;;;;7.65;1.65;;;33.40;45.00;;;;;;10814691;32;20380;-67
2022/06/27 09:57:40;;;;;;;4.37;1.37;;;33.50;44.40;;;;;;10826673;32;20028;-68
2022/06/27 10:03:42;;;;;;;3.90;1.23;;;33.60;43.90;;;;;;10826270;32;20039;-68
2022/06/27 10:09:48;;;;;;;8.30;1.02;;;33.80;43.60;;;;;;10908716;32;20076;-67
2022/06/27 10:15:50;;;;;;;3.70;1.77;;;33.90;43.20;;;;;;10941505;32;20035;-68
2022/06/27 10:21:53;;;;;;;7.22;1.52;;;34.00;42.90;;;;;;10928015;32;20023;-68
2022/06/27 10:28:28;;;;;;;4.78;1.25;;;34.20;41.70;;;;;;10927989;32;20045;-69
2022/06/27 10:34:46;;;;;;;2.83;1.02;;;34.30;41.30;;;;;;10945278;32;20022;-68
2022/06/27 10:40:50;;;;;;;9.65;1.62;;;34.40;40.70;;;;;;10948699;32;20339;-69
2022/06/27 10:46:52;;;;;;;2.72;1.62;;;34.50;40.70;;;;;;10948400;32;20019;-73
2022/06/27 10:53:23;;;;;;;3.40;1.42;;;34.70;40.40;;;;;;10942981;32;20061;-73
2022/06/27 10:59:27;;;;;;;4.65;1.37;;;34.90;40.00;;;;;;10943736;32;20026;-73
2022/06/27 11:05:50;;;;;;;3.47;1.48;;;34.90;41.60;;;;;;10934396;32;20423;-74
2022/06/27 11:12:07;;;;;;;3.95;1.35;;;35.00;41.00;;;;;;10933820;32;20065;-74
2022/06/27 11:18:10;;;;;;;6.72;1.90;;;35.20;40.70;;;;;;10933915;32;20022;-73
2022/06/27 11:24:12;;;;;;;7.20;2.10;;;35.40;40.40;;;;;;10947076;32;20296;-75
2022/06/27 11:37:00;;;;;;;8.02;2.55;;;35.70;40.20;;;;;;10946147;32;20015;-73
2022/06/27 11:43:03;;;;;;;7.25;2.30;;;35.90;40.00;;;;;;10945764;32;20047;-73
2022/06/27 11:49:42;;;;;;;7.25;1.90;;;36.20;39.60;;;;;;10945877;32;20022;-74
2022/06/27 11:55:47;;;;;;;6.75;1.85;;;36.30;40.00;;;;;;10945914;32;20046;-74
2022/06/27 12:02:16;;;;;;;12.75;2.17;;;36.30;40.10;;;;;;10945645;32;20050;-73
2022/06/27 12:08:18;;;;;;;5.90;1.45;;;36.20;40.10;;;;;;10744660;33;20028;-74
2022/06/27 12:14:21;;;;;;;8.27;1.62;;;36.20;40.10;;;;;;10755566;33;20439;-73
2022/06/27 12:20:25;;;;;;;5.07;2.15;;;36.40;39.80;;;;;;10756066;33;20051;-74
2022/06/27 12:26:27;;;;;;;4.25;1.37;;;36.30;39.90;;;;;;10740989;33;20033;-74
2022/06/27 12:32:30;;;;;;;11.30;2.50;;;36.20;40.30;;;;;;10828638;27;20044;-73
2022/06/27 12:38:33;;;;;;;7.37;2.67;;;36.10;40.30;;;;;;10829026;32;20032;-74
2022/06/27 12:44:35;;;;;;;8.27;2.42;;;36.30;40.10;;;;;;10966345;32;20394;-74
2022/06/27 12:50:37;;;;;;;3.65;1.58;;;36.20;40.70;;;;;;10990100;32;20026;-73
2022/06/27 12:56:39;;;;;;;11.05;2.83;;;36.20;40.60;;;;;;10980998;32;20030;-75
2022/06/27 13:02:41;;;;;;;7.30;1.67;;;36.30;40.40;;;;;;10985781;32;20081;-74
2022/06/27 13:08:43;;;;;;;10.63;2.05;;;36.20;40.70;;;;;;10980918;32;20027;-74
2022/06/27 13:14:45;;;;;;;5.30;2.25;;;36.20;40.30;;;;;;10976608;32;20014;-73
2022/06/27 13:20:47;;;;;;;7.90;1.62;;;36.30;40.00;;;;;;10975461;32;20026;-73
2022/06/27 13:26:52;;;;;;;7.43;2.60;;;36.30;39.80;;;;;;10980277;32;20014;-74
2022/06/27 13:32:54;;;;;;;5.95;1.60;;;36.30;39.60;;;;;;10980207;32;20023;-76
2022/06/27 13:38:57;;;;;;;2.90;1.37;;;36.30;39.60;;;;;;10980068;32;20045;-75
2022/06/27 13:45:00;;;;;;;5.40;2.12;;;36.20;39.80;;;;;;10979954;32;20026;-74
2022/06/27 13:51:02;;;;;;;4.15;1.77;;;36.00;39.70;;;;;;10979704;32;20062;-74
2022/06/27 13:57:04;;;;;;;6.80;1.52;;;36.00;39.50;;;;;;10979751;32;20195;-75
2022/06/27 14:03:07;;;;;;;8.23;2.10;;;36.20;39.40;;;;;;10979165;32;20410;-69
2022/06/27 14:09:09;;;;;;;5.57;1.73;;;36.20;39.00;;;;;;10983083;32;20433;-68
2022/06/27 14:15:11;;;;;;;15.25;2.83;;;36.10;39.70;;;;;;10987379;32;20022;-68
2022/06/27 14:21:14;;;;;;;3.67;1.30;;;35.90;40.20;;;;;;10973651;32;20014;-69
2022/06/27 14:27:18;;;;;;;6.85;1.92;;;35.90;40.50;;;;;;10986662;32;20049;-69
2022/06/27 14:33:21;;;;;;;15.98;1.90;;;35.90;40.40;;;;;;10985765;32;20057;-69
2022/06/27 14:39:23;;;;;;;6.00;2.03;;;35.80;40.70;;;;;;10986009;32;20045;-69
2022/06/27 14:45:25;;;;;;;11.12;3.30;;;35.80;40.90;;;;;;10997929;32;20026;-69
2022/06/27 14:51:28;;;;;;;11.95;3.10;;;35.90;41.10;;;;;;10997703;32;20065;-70
2022/06/27 14:57:31;;;;;;;14.93;2.53;;;35.80;40.60;;;;;;10991649;32;20069;-69
2022/06/27 15:03:35;;;;;;;7.75;2.35;;;35.70;40.70;;;;;;11023517;32;20022;-72
2022/06/27 15:10:06;;;;;;;13.30;2.70;;;35.60;41.20;;;;;;11023574;32;20018;-74
2022/06/27 15:16:08;;;;;;;6.82;2.10;;;35.50;41.30;;;;;;11023343;32;20044;-74
2022/06/27 15:22:11;;;;;;;9.48;2.55;;;35.60;40.30;;;;;;11022794;32;20014;-75
2022/06/27 15:28:13;;;;;;;6.18;2.28;;;35.70;40.20;;;;;;11022639;32;20341;-75
2022/06/27 15:34:16;;;;;;;6.87;2.30;;;35.80;39.60;;;;;;11017608;32;20413;-75
2022/06/27 15:40:18;;;;;;;7.80;2.53;;;35.80;39.80;;;;;;11007728;32;20060;-74
2022/06/27 15:46:21;;;;;;;7.32;1.55;;;35.80;40.20;;;;;;11021768;32;20440;-74
2022/06/27 15:52:23;;;;;;;9.65;2.08;;;35.80;39.90;;;;;;11021382;32;20048;-74
2022/06/27 15:58:25;;;;;;;13.25;2.35;;;35.70;40.00;;;;;;11021021;32;20030;-69
2022/06/27 16:04:27;;;;;;;7.00;2.12;;;35.90;39.70;;;;;;11006954;32;20023;-70
2022/06/27 16:10:29;;;;;;;4.18;1.58;;;35.90;39.40;;;;;;11018653;32;20013;-69
2022/06/27 16:16:31;;;;;;;3.65;1.58;;;35.90;39.00;;;;;;11020581;32;20076;-69
2022/06/27 16:22:35;;;;;;;8.68;2.53;;;35.90;39.00;;;;;;11019771;32;20053;-70
2022/06/27 16:28:36;;;;;;;9.30;2.10;;;35.90;39.50;;;;;;11019902;32;20027;-69
2022/06/27 16:34:38;;;;;;;6.43;1.92;;;35.90;40.90;;;;;;11019491;32;20014;-70
2022/06/27 16:40:41;;;;;;;3.90;1.52;;;35.70;41.20;;;;;;11019581;32;20055;-70
2022/06/27 16:46:44;;;;;;;11.77;1.48;;;35.70;41.20;;;;;;11005713;32;20018;-71
2022/06/27 16:52:46;;;;;;;6.05;1.70;;;35.80;40.60;;;;;;11017445;32;20026;-70
2022/06/27 16:58:48;;;;;;;9.75;1.92;;;35.60;41.10;;;;;;11019404;32;20026;-70
2022/06/27 17:04:50;;;;;;;4.62;2.22;;;35.60;40.70;;;;;;11018958;32;20023;-71
2022/06/27 17:10:52;;;;;;;5.97;1.98;;;35.70;40.40;;;;;;10997383;32;20084;-70
2022/06/27 17:17:22;;;;;;;3.20;1.42;;;35.70;40.40;;;;;;10981208;32;20054;-70
2022/06/27 17:23:24;;;;;;;3.42;1.33;;;35.60;40.30;;;;;;10981012;32;20518;-71
2022/06/27 17:29:26;;;;;;;4.78;1.40;;;35.50;40.50;;;;;;10980514;32;20014;-70
2022/06/27 17:35:29;;;;;;;7.72;1.90;;;35.40;40.40;;;;;;10978490;32;20289;-70
2022/06/27 17:41:33;;;;;;;4.57;2.30;;;35.50;40.20;;;;;;10980284;32;20023;-70
2022/06/27 17:47:41;;;;;;;6.93;2.83;;;35.50;40.30;;;;;;10979953;32;20030;-70
2022/06/27 17:53:43;;;;;;;8.95;2.20;;;35.50;40.10;;;;;;11004993;32;20382;-70
2022/06/27 17:59:45;;;;;;;13.85;2.28;;;35.90;39.90;;;;;;10984378;32;20292;-70
2022/06/27 18:05:49;;;;;;;6.53;2.28;;;36.10;39.80;;;;;;10981860;32;20440;-70
2022/06/27 18:11:52;;;;;;;4.40;1.55;;;35.80;40.30;;;;;;10984824;32;20042;-74
2022/06/27 18:18:12;;;;;;;3.65;1.70;;;35.40;40.90;;;;;;11016389;32;20030;-74
2022/06/27 18:24:14;;;;;;;3.05;1.23;;;35.00;41.70;;;;;;11018378;32;20038;-70
2022/06/27 18:30:17;;;;;;;4.50;1.65;;;34.70;42.40;;;;;;11015762;32;20023;-70
2022/06/27 18:36:20;;;;;;;9.57;1.52;;;34.40;42.80;;;;;;11016313;32;20060;-70
2022/06/27 18:42:23;;;;;;;7.10;2.15;;;34.20;43.30;;;;;;11005444;32;20108;-70
2022/06/27 18:48:25;;;;;;;13.80;1.00;;;33.90;43.80;;;;;;11014516;32;20022;-70
2022/06/27 18:54:27;;;;;;;3.20;1.37;;;33.70;44.30;;;;;;10989014;32;20026;-70
2022/06/27 19:00:31;;;;;;;2.58;1.25;;;33.50;44.80;;;;;;10982828;32;20014;-70
2022/06/27 19:06:33;;;;;;;2.95;0.98;;;33.30;45.30;;;;;;10981938;32;20045;-70
2022/06/27 19:12:37;;;;;;;1.60;0.77;;;33.20;45.80;;;;;;10981715;32;20019;-73
2022/06/27 19:18:39;;;;;;;2.28;1.30;;;33.00;46.20;;;;;;10984994;32;20030;-74
2022/06/27 19:24:59;;;;;;;2.30;0.80;;;32.90;46.60;;;;;;10984624;32;20010;-74
2022/06/27 19:31:02;;;;;;;2.60;1.23;;;32.90;47.20;;;;;;10984165;32;20022;-74
2022/06/27 19:37:04;;;;;;;2.47;0.88;;;32.80;48.00;;;;;;10983925;32;20019;-74
2022/06/27 19:43:07;;;;;;;4.57;1.33;;;32.70;48.50;;;;;;10983329;32;20031;-75
2022/06/27 19:49:11;;;;;;;4.75;1.62;;;32.60;49.80;;;;;;10984055;32;20326;-75
2022/06/27 19:55:14;;;;;;;5.93;2.00;;;32.40;49.90;;;;;;10984029;32;20323;-75
2022/06/27 20:01:16;;;;;;;13.27;1.52;;;32.30;50.30;;;;;;10983622;32;20045;-75
2022/06/27 20:07:28;;;;;;;3.92;1.52;;;32.20;51.50;;;;;;10982781;32;20417;-75
2022/06/27 20:13:30;;;;;;;4.80;1.37;;;32.10;51.90;;;;;;10982264;32;20015;-75
2022/06/27 20:19:33;;;;;;;6.68;1.73;;;32.10;52.30;;;;;;10983098;32;20554;-74
2022/06/27 20:25:35;;;;;;;3.35;1.55;;;31.90;53.50;;;;;;10982772;32;20057;-75
2022/06/27 20:31:38;;;;;;;3.03;1.17;;;31.80;54.30;;;;;;10489402;27;13284061;-75
2022/06/27 20:37:41;;;;;;;4.60;1.10;;;31.70;54.10;;;;;;10890832;32;20023;-75
2022/06/27 20:43:59;;;;;;;7.28;1.60;;;31.70;54.00;;;;;;10878364;32;20051;-75
2022/06/27 20:50:06;;;;;;;3.22;1.08;;;31.60;54.50;;;;;;10866328;32;20036;-75
2022/06/27 20:56:08;;;;;;;4.57;1.00;;;31.60;55.10;;;;;;10907723;32;20027;-75
2022/06/27 21:02:12;;;;;;;4.03;0.80;;;31.40;56.10;;;;;;10943849;32;20061;-75
2022/06/27 21:14:36;;;;;;;7.90;1.58;;;31.40;55.70;;;;;;10943294;32;20031;-75
2022/06/27 21:20:39;;;;;;;14.63;2.28;;;31.30;55.90;;;;;;10942752;32;20027;-75
2022/06/27 21:26:42;;;;;;;5.03;1.45;;;31.30;56.00;;;;;;10942747;32;20407;-74
2022/06/27 21:33:21;;;;;;;4.75;1.17;;;31.20;56.50;;;;;;10826975;32;20035;-70
2022/06/27 21:39:23;;;;;;;4.47;1.30;;;31.10;57.40;;;;;;10825773;32;20074;-69
2022/06/27 21:45:25;;;;;;;3.83;1.35;;;31.00;57.20;;;;;;10822971;32;20059;-70
2022/06/27 21:51:27;;;;;;;9.27;1.55;;;31.00;57.10;;;;;;10808977;33;20060;-70
2022/06/27 21:57:54;;;;;;;4.12;1.08;;;30.90;57.90;;;;;;10824777;32;20024;-69
2022/06/27 22:03:56;;;;;;;6.23;1.40;;;30.80;58.60;;;;;;10821900;33;20027;-69
2022/06/27 22:09:58;;;;;;;4.47;1.77;;;30.80;58.40;;;;;;10910810;32;20311;-70
2022/06/27 22:16:00;;;;;;;3.60;1.00;;;30.80;59.10;;;;;;10941512;32;20383;-69
2022/06/27 22:22:03;;;;;;;2.45;1.45;;;30.70;59.30;;;;;;10937480;32;20089;-69
2022/06/27 22:28:05;;;;;;;8.23;1.52;;;30.70;59.10;;;;;;10938274;32;20058;-70
2022/06/27 22:34:08;;;;;;;6.68;1.33;;;30.60;59.30;;;;;;10945983;32;20064;-69
2022/06/27 22:40:11;;;;;;;6.97;1.48;;;30.60;59.50;;;;;;10944626;32;20057;-69
2022/06/27 22:46:13;;;;;;;1.60;0.85;;;30.60;59.60;;;;;;10946049;32;20081;-70
2022/06/27 22:52:16;;;;;;;3.08;1.23;;;30.50;60.10;;;;;;10944469;32;20374;-69
2022/06/27 22:58:33;;;;;;;3.47;1.45;;;30.50;60.60;;;;;;10944957;32;20019;-70
2022/06/27 23:04:35;;;;;;;6.03;1.48;;;30.40;60.50;;;;;;10944162;32;20007;-69
2022/06/27 23:10:37;;;;;;;4.10;1.52;;;30.40;60.70;;;;;;10943536;32;20019;-69
2022/06/27 23:16:40;;;;;;;2.75;1.02;;;30.30;60.60;;;;;;10946522;32;20057;-69
2022/06/27 23:22:43;;;;;;;3.35;1.23;;;30.30;60.70;;;;;;10943059;32;20308;-69
2022/06/27 23:28:45;;;;;;;8.98;2.17;;;30.30;60.20;;;;;;10942896;32;20045;-69
2022/06/27 23:34:48;;;;;;;3.62;1.75;;;30.30;60.10;;;;;;10942799;32;20055;-69
2022/06/27 23:40:50;;;;;;;6.70;1.90;;;30.10;60.30;;;;;;10942236;32;20035;-69
2022/06/27 23:46:52;;;;;;;1.98;0.70;;;30.00;60.60;;;;;;10942303;32;20422;-69
2022/06/27 23:52:54;;;;;;;4.93;1.58;;;29.90;60.50;;;;;;10942117;32;20410;-69
2022/06/27 23:58:56;;;;;;;2.90;1.45;;;29.90;60.70;;;;;;10941654;32;20049;-69
